createdAt,value
2023-01-29T00:00:25.185Z,30.98
2023-01-29T00:03:53.355Z,29.92
2023-01-29T00:07:18.530Z,27.37
2023-01-29T00:10:44.034Z,31.80
2023-01-29T00:14:10.804Z,29.55
2023-01-29T00:17:37.401Z,31.15
2023-01-29T00:21:02.278Z,32.27
2023-01-29T00:24:27.835Z,29.33
2023-01-29T00:27:55.916Z,28.73
2023-01-29T00:31:24.034Z,29.17
2023-01-29T00:34:49.465Z,30.85
2023-01-29T00:38:14.983Z,25.37
2023-01-29T00:41:57.607Z,32.13
2023-01-29T00:45:23.302Z,27.75
2023-01-29T00:48:50.280Z,29.48
2023-01-29T00:52:28.329Z,29.50
2023-01-29T00:55:53.708Z,31.12
2023-01-29T00:59:19.125Z,29.42
2023-01-29T01:03:01.748Z,30.40
2023-01-29T01:06:28.592Z,34.17
2023-01-29T01:10:10.501Z,35.58
2023-01-29T01:13:36.831Z,31.10
2023-01-29T01:17:02.458Z,34.03
2023-01-29T01:20:28.179Z,28.40
2023-01-29T01:23:54.541Z,29.95
2023-01-29T01:27:20.242Z,28.65
2023-01-29T01:30:45.377Z,32.10
2023-01-29T01:34:14.145Z,34.88
2023-01-29T01:37:39.666Z,34.00
2023-01-29T01:41:07.025Z,33.35
2023-01-29T01:45:08.688Z,34.20
2023-01-29T01:48:35.426Z,30.00
2023-01-29T01:52:01.668Z,33.25
2023-01-29T01:55:29.320Z,33.45
2023-01-29T01:58:57.510Z,34.55
2023-01-29T02:02:40.666Z,32.07
2023-01-29T02:06:24.806Z,29.98
2023-01-29T02:09:52.178Z,34.83
2023-01-29T02:13:21.881Z,36.33
2023-01-29T02:16:49.040Z,32.13
2023-01-29T02:20:20.051Z,29.37
2023-01-29T02:24:13.947Z,36.80
2023-01-29T02:27:55.265Z,27.95
2023-01-29T02:31:30.333Z,36.93
2023-01-29T02:35:18.147Z,32.85
2023-01-29T02:38:46.630Z,33.05
2023-01-29T02:42:15.437Z,34.33
2023-01-29T02:45:46.793Z,32.23
2023-01-29T02:49:15.921Z,38.85
2023-01-29T02:52:45.679Z,38.28
2023-01-29T02:56:16.384Z,35.80
2023-01-29T02:59:43.094Z,38.10
2023-01-29T03:03:10.453Z,32.95
2023-01-29T03:06:39.930Z,36.58
2023-01-29T03:10:05.994Z,37.85
2023-01-29T03:13:36.119Z,35.38
2023-01-29T03:17:02.047Z,35.90
2023-01-29T03:20:30.246Z,38.13
2023-01-29T03:24:14.622Z,39.67
2023-01-29T03:27:58.329Z,36.63
2023-01-29T03:31:42.458Z,34.67
2023-01-29T03:35:09.347Z,35.08
2023-01-29T03:38:35.543Z,39.22
2023-01-29T03:42:05.192Z,33.58
2023-01-29T03:45:45.995Z,39.27
2023-01-29T03:49:14.492Z,41.22
2023-01-29T03:52:42.730Z,38.38
2023-01-29T03:56:09.612Z,40.35
2023-01-29T03:59:40.732Z,43.53
2023-01-29T04:03:09.220Z,43.53
2023-01-29T04:06:36.380Z,35.90
2023-01-29T04:10:02.408Z,36.35
2023-01-29T04:13:28.135Z,35.42
2023-01-29T04:16:56.007Z,36.97
2023-01-29T04:20:22.343Z,35.47
2023-01-29T04:23:47.863Z,37.27
2023-01-29T04:27:23.727Z,34.88
2023-01-29T04:30:52.882Z,41.03
2023-01-29T04:34:24.593Z,35.33
2023-01-29T04:37:53.287Z,41.20
2023-01-29T04:41:23.271Z,36.70
2023-01-29T04:44:53.091Z,41.58
2023-01-29T04:48:22.189Z,43.25
2023-01-29T04:51:56.963Z,40.87
2023-01-29T04:55:24.017Z,40.50
2023-01-29T04:58:51.476Z,39.90
2023-01-29T05:02:17.613Z,34.50
2023-01-29T05:05:46.506Z,35.87
2023-01-29T05:09:14.282Z,35.28
2023-01-29T05:12:40.107Z,35.85
2023-01-29T05:16:13.171Z,36.30
2023-01-29T05:19:38.518Z,31.90
2023-01-29T05:23:04.983Z,32.75
2023-01-29T05:26:48.704Z,29.00
2023-01-29T05:30:14.976Z,31.50
2023-01-29T05:33:40.657Z,34.65
2023-01-29T05:37:08.842Z,33.70
2023-01-29T05:40:33.646Z,32.45
2023-01-29T05:44:00.290Z,30.67
2023-01-29T05:47:25.403Z,41.90
2023-01-29T05:50:51.025Z,36.20
2023-01-29T05:54:16.242Z,40.55
2023-01-29T05:57:43.386Z,35.15
2023-01-29T06:01:14.743Z,37.67
2023-01-29T06:04:40.781Z,32.38
2023-01-29T06:08:06.185Z,38.05
2023-01-29T06:11:32.609Z,36.15
2023-01-29T06:14:57.743Z,35.57
2023-01-29T06:18:25.402Z,35.40
2023-01-29T06:21:50.813Z,39.47
2023-01-29T06:25:17.368Z,43.50
2023-01-29T06:28:42.751Z,41.53
2023-01-29T06:32:08.945Z,40.45
2023-01-29T06:35:35.838Z,40.97
2023-01-29T06:39:01.875Z,42.00
2023-01-29T06:42:28.747Z,34.80
2023-01-29T06:45:56.035Z,39.08
2023-01-29T06:49:21.009Z,36.78
2023-01-29T06:52:48.267Z,38.95
2023-01-29T06:56:13.102Z,35.90
2023-01-29T06:59:39.237Z,37.95
2023-01-29T07:03:04.486Z,44.80
2023-01-29T07:06:31.096Z,48.63
2023-01-29T07:09:57.501Z,39.33
2023-01-29T07:13:23.329Z,39.35
2023-01-29T07:16:48.330Z,37.13
2023-01-29T07:20:14.803Z,36.03
2023-01-29T07:23:40.779Z,37.70
2023-01-29T07:27:07.545Z,33.97
2023-01-29T07:30:32.755Z,38.13
2023-01-29T07:33:58.327Z,31.55
2023-01-29T07:37:23.231Z,30.27
2023-01-29T07:40:49.113Z,33.15
2023-01-29T07:44:16.164Z,39.05
2023-01-29T07:47:41.906Z,50.15
2023-01-29T07:51:06.742Z,58.10
2023-01-29T07:54:39.815Z,40.72
2023-01-29T07:58:05.921Z,36.00
2023-01-29T08:01:33.177Z,36.55
2023-01-29T08:04:59.109Z,22.75
2023-01-29T08:08:24.315Z,23.27
2023-01-29T08:11:49.943Z,23.83
2023-01-29T08:15:14.851Z,31.25
2023-01-29T08:18:45.294Z,24.25
2023-01-29T08:22:10.892Z,22.58
2023-01-29T08:25:36.204Z,18.37
2023-01-29T08:29:01.321Z,20.58
2023-01-29T08:32:27.252Z,19.27
2023-01-29T08:35:53.788Z,21.10
2023-01-29T08:39:20.025Z,19.92
2023-01-29T08:42:44.823Z,22.05
2023-01-29T08:46:10.805Z,17.93
2023-01-29T08:49:37.220Z,15.98
2023-01-29T08:53:04.558Z,17.45
2023-01-29T08:56:31.815Z,19.98
2023-01-29T08:59:58.290Z,16.67
2023-01-29T09:03:23.805Z,17.60
2023-01-29T09:06:48.780Z,21.48
2023-01-29T09:10:17.105Z,17.02
2023-01-29T09:13:43.108Z,17.43
2023-01-29T09:17:08.303Z,22.87
2023-01-29T09:20:33.740Z,21.75
2023-01-29T09:23:58.624Z,21.30
2023-01-29T09:27:25.473Z,18.25
2023-01-29T09:30:50.318Z,19.67
2023-01-29T09:34:16.220Z,22.35
2023-01-29T09:37:41.931Z,17.55
2023-01-29T09:41:11.640Z,21.67
2023-01-29T09:44:51.194Z,16.37
2023-01-29T09:48:16.851Z,26.10
2023-01-29T09:51:43.704Z,26.12
2023-01-29T09:55:15.535Z,11.43
2023-01-29T09:58:41.474Z,17.12
2023-01-29T10:02:12.831Z,14.40
2023-01-29T10:05:51.229Z,17.15
2023-01-29T10:09:58.324Z,12.27
2023-01-29T10:13:29.475Z,17.27
2023-01-29T10:17:06.830Z,15.27
2023-01-29T10:20:41.815Z,24.70
2023-01-29T10:24:19.713Z,16.50
2023-01-29T10:27:50.555Z,15.95
2023-01-29T10:31:16.925Z,16.42
2023-01-29T10:34:47.739Z,18.08
2023-01-29T10:38:23.635Z,15.83
2023-01-29T10:41:59.566Z,15.77
2023-01-29T10:45:28.051Z,13.98
2023-01-29T10:49:02.587Z,15.02
2023-01-29T10:52:36.293Z,12.43
2023-01-29T10:56:20.970Z,15.50
2023-01-29T10:59:58.566Z,17.70
2023-01-29T11:03:28.248Z,15.73
2023-01-29T11:06:53.488Z,10.47
2023-01-29T11:10:19.923Z,12.93
2023-01-29T11:13:53.540Z,13.10
2023-01-29T11:17:19.402Z,12.05
2023-01-29T11:20:44.693Z,14.18
2023-01-29T11:24:17.511Z,13.50
2023-01-29T11:27:46.337Z,15.60
2023-01-29T11:31:24.884Z,10.30
2023-01-29T11:35:06.594Z,13.40
2023-01-29T11:38:35.079Z,10.87
2023-01-29T11:42:01.353Z,15.02
2023-01-29T11:45:31.135Z,13.48
2023-01-29T11:48:59.322Z,12.82
2023-01-29T11:52:40.931Z,17.53
2023-01-29T11:56:08.245Z,15.27
2023-01-29T11:59:43.311Z,21.30
2023-01-29T12:03:09.852Z,11.80
2023-01-29T12:06:39.053Z,14.90
2023-01-29T12:10:04.374Z,9.57
2023-01-29T12:13:31.657Z,9.85
2023-01-29T12:16:57.583Z,11.27
2023-01-29T12:20:26.533Z,11.52
2023-01-29T12:24:03.445Z,10.82
2023-01-29T12:27:33.058Z,8.63
2023-01-29T12:31:09.329Z,14.65
2023-01-29T12:34:42.932Z,16.37
2023-01-29T12:38:11.112Z,13.57
2023-01-29T12:41:46.275Z,10.43
2023-01-29T12:45:13.206Z,10.15
2023-01-29T12:48:41.923Z,10.73
2023-01-29T12:52:10.608Z,18.50
2023-01-29T12:55:38.044Z,17.60
2023-01-29T12:59:07.675Z,15.68
2023-01-29T13:02:38.288Z,11.75
2023-01-29T13:06:05.685Z,10.07
2023-01-29T13:09:33.033Z,10.35
2023-01-29T13:13:00.276Z,15.88
2023-01-29T13:16:29.454Z,12.05
2023-01-29T13:19:56.047Z,10.63
2023-01-29T13:23:23.506Z,10.45
2023-01-29T13:26:49.212Z,11.80
2023-01-29T13:30:31.525Z,12.55
2023-01-29T13:34:01.870Z,10.82
2023-01-29T13:37:31.207Z,13.32
2023-01-29T13:40:56.796Z,13.40
2023-01-29T13:44:25.520Z,14.27
2023-01-29T13:47:51.118Z,25.55
2023-01-29T13:51:27.072Z,25.15
2023-01-29T13:54:57.921Z,15.32
2023-01-29T13:58:57.383Z,17.58
2023-01-29T14:02:24.330Z,16.62
2023-01-29T14:06:00.468Z,11.30
2023-01-29T14:09:59.167Z,13.27
2023-01-29T14:13:37.319Z,11.50
2023-01-29T14:17:04.937Z,15.73
2023-01-29T14:20:46.362Z,10.90
2023-01-29T14:24:19.117Z,12.45
2023-01-29T14:27:49.854Z,19.30
2023-01-29T14:31:15.665Z,13.43
2023-01-29T14:34:53.667Z,15.68
2023-01-29T14:38:22.590Z,15.18
2023-01-29T14:41:52.344Z,12.32
2023-01-29T14:45:27.448Z,12.07
2023-01-29T14:48:54.196Z,13.02
2023-01-29T14:52:19.815Z,13.73
2023-01-29T14:55:47.175Z,15.57
2023-01-29T14:59:19.064Z,22.02
2023-01-29T15:02:48.132Z,17.33
2023-01-29T15:06:18.063Z,20.70
2023-01-29T15:09:47.014Z,14.80
2023-01-29T15:13:21.904Z,12.30
2023-01-29T15:16:52.337Z,16.98
2023-01-29T15:20:33.008Z,18.40
2023-01-29T15:24:09.382Z,15.57
2023-01-29T15:27:35.694Z,16.40
2023-01-29T15:31:03.129Z,17.83
2023-01-29T15:34:31.317Z,24.27
2023-01-29T15:38:06.304Z,13.35
2023-01-29T15:41:34.075Z,12.73
2023-01-29T15:45:03.793Z,20.25
2023-01-29T15:48:32.998Z,14.25
2023-01-29T15:52:00.665Z,17.12
2023-01-29T15:55:32.434Z,17.20
2023-01-29T15:59:01.984Z,13.82
2023-01-29T16:02:41.039Z,12.30
2023-01-29T16:06:09.363Z,13.02
2023-01-29T16:09:35.610Z,12.88
2023-01-29T16:13:03.583Z,12.80
2023-01-29T16:16:30.092Z,15.65
2023-01-29T16:20:00.818Z,12.27
2023-01-29T16:23:29.553Z,10.90
2023-01-29T16:27:01.440Z,14.10
2023-01-29T16:30:30.028Z,9.05
2023-01-29T16:34:01.467Z,16.77
2023-01-29T16:37:28.624Z,10.30
2023-01-29T16:41:15.069Z,8.27
2023-01-29T16:44:41.574Z,11.20
2023-01-29T16:48:28.705Z,12.20
2023-01-29T16:51:57.098Z,12.83
2023-01-29T16:55:25.804Z,12.40
2023-01-29T16:59:13.547Z,8.98
2023-01-29T17:02:54.089Z,8.55
2023-01-29T17:06:25.599Z,10.67
2023-01-29T17:09:52.812Z,15.75
2023-01-29T17:13:27.022Z,9.25
2023-01-29T17:16:55.710Z,14.48
2023-01-29T17:20:23.580Z,13.70
2023-01-29T17:23:55.167Z,14.40
2023-01-29T17:27:26.436Z,13.55
2023-01-29T17:31:05.536Z,12.70
2023-01-29T17:34:32.694Z,11.40
2023-01-29T17:38:00.470Z,15.73
2023-01-29T17:41:31.418Z,10.40
2023-01-29T17:45:09.232Z,11.93
2023-01-29T17:48:42.846Z,14.20
2023-01-29T17:52:10.914Z,17.42
2023-01-29T17:55:45.437Z,17.20
2023-01-29T17:59:16.273Z,13.38
2023-01-29T18:02:45.716Z,9.80
2023-01-29T18:06:13.872Z,14.50
2023-01-29T18:09:43.443Z,11.25
2023-01-29T18:13:11.788Z,13.62
2023-01-29T18:16:39.683Z,18.02
2023-01-29T18:20:20.319Z,22.42
2023-01-29T18:23:51.380Z,18.50
2023-01-29T18:27:20.914Z,16.65
2023-01-29T20:44:38.920Z,32.13
2023-01-29T20:48:03.722Z,30.00
2023-01-29T20:51:27.872Z,33.83
2023-01-29T20:54:52.422Z,32.53
2023-01-29T20:58:16.995Z,28.40
2023-01-29T21:01:43.132Z,33.60
2023-01-29T21:05:07.823Z,32.38
2023-01-29T21:08:32.115Z,27.92
2023-01-29T21:11:56.454Z,24.37
2023-01-29T21:15:20.697Z,28.90
2023-01-29T21:18:46.933Z,37.92
2023-01-29T21:22:12.816Z,27.50
2023-01-29T21:25:36.766Z,25.98
2023-01-29T21:29:00.789Z,23.03
2023-01-29T21:32:25.120Z,19.15
2023-01-29T21:35:58.604Z,22.80
2023-01-29T21:39:24.398Z,29.50
2023-01-29T21:43:05.175Z,31.17
2023-01-29T21:46:27.841Z,22.15
2023-01-29T21:49:51.208Z,25.65
2023-01-29T21:53:15.538Z,27.65
2023-01-29T21:56:38.005Z,28.12
2023-01-29T22:00:01.135Z,23.27
2023-01-29T22:03:26.485Z,19.55
2023-01-29T22:06:49.681Z,17.27
2023-01-29T22:10:13.666Z,26.12
2023-01-29T22:13:36.346Z,20.05
2023-01-29T22:16:58.981Z,22.50
2023-01-29T22:20:29.701Z,22.95
2023-01-29T22:23:52.044Z,18.87
2023-01-29T22:27:16.256Z,15.45
2023-01-29T22:30:41.478Z,16.25
2023-01-29T22:34:04.448Z,16.27
2023-01-29T22:37:26.969Z,25.48
2023-01-29T22:40:51.012Z,24.95
2023-01-29T22:44:14.691Z,23.58
2023-01-29T22:47:37.055Z,20.40
2023-01-29T22:51:10.065Z,26.77
2023-01-29T22:54:32.949Z,27.52
2023-01-29T22:57:55.469Z,36.30
2023-01-29T23:01:20.601Z,33.38
2023-01-29T23:04:43.165Z,29.73
2023-01-29T23:08:06.466Z,33.10
2023-01-29T23:11:29.129Z,24.63
2023-01-29T23:14:51.698Z,19.48
2023-01-29T23:18:15.638Z,18.23
2023-01-29T23:21:38.497Z,24.90
2023-01-29T23:25:02.835Z,22.60
2023-01-29T23:28:24.915Z,16.48
2023-01-29T23:31:47.603Z,19.23
2023-01-29T23:35:11.919Z,18.67
2023-01-29T23:38:34.464Z,27.27
2023-01-29T23:42:00.160Z,26.25
2023-01-29T23:45:22.731Z,24.43
2023-01-29T23:48:45.758Z,21.98
2023-01-29T23:52:09.711Z,21.23
2023-01-29T23:55:32.293Z,17.92
2023-01-29T23:58:55.596Z,21.48
